EFW21AA LGTS-EGKK
Flight info
| Callsign | EFW21AA |
|---|---|
| Flight time | 3h 8m |
| Altitude | 34000 |
| Route | FSK4B FSK UN128 RUGAS DCT RAXAD DCT GINAM DCT SOSEK DCT NEVAK DCT RISTU DCT TADAM DCT BABIT DCT OLATI/N0448F360 DCT ARSIN DCT BUDEX DCT OKG DCT VELIS DCT SWALM DCT TORNU DCT BATAK DCT GALSO Q63 ARREK Y4 TEBRA TEBRA2G |
| Aircraft | A320/M-SDE3FGIJ1KRWXY/S |
Departure
| Time | 2026-05-06 17:16 |
|---|---|
| Airport | Thessaloniki Macedonia International Airport (LGTS) |
Arrival
| Time | 2026-05-06 20:25 |
|---|---|
| Airport | London Gatwick Airport (EGKK) |
| Time | Latitude | Longitude | Altitude | Speed | Heading |
|---|---|---|---|---|---|
| 2026-05-06 15:13 | 40.52311 | 22.97577 | 29 ft | 0 kts | 44° |
| 2026-05-06 17:04 | 40.52304 | 22.97568 | 31 ft | 4 kts | 44° |
| 2026-05-06 17:04 | 40.52288 | 22.97547 | 28 ft | 3 kts | 45° |
| 2026-05-06 17:04 | 40.52276 | 22.97521 | 31 ft | 4 kts | 104° |
| 2026-05-06 17:04 | 40.52288 | 22.97495 | 31 ft | 4 kts | 136° |
| 2026-05-06 17:05 | 40.52298 | 22.97482 | 31 ft | 0 kts | 136° |
| 2026-05-06 17:08 | 40.52293 | 22.97488 | 27 ft | 3 kts | 136° |
| 2026-05-06 17:08 | 40.52257 | 22.97534 | 25 ft | 10 kts | 136° |
| 2026-05-06 17:09 | 40.52201 | 22.97604 | 25 ft | 13 kts | 137° |
| 2026-05-06 17:09 | 40.52115 | 22.97695 | 25 ft | 17 kts | 139° |
| 2026-05-06 17:09 | 40.52021 | 22.97811 | 25 ft | 20 kts | 132° |
| 2026-05-06 17:09 | 40.51973 | 22.97984 | 28 ft | 21 kts | 102° |
| 2026-05-06 17:10 | 40.51937 | 22.98185 | 25 ft | 24 kts | 104° |
| 2026-05-06 17:10 | 40.51896 | 22.98405 | 27 ft | 26 kts | 105° |
| 2026-05-06 17:10 | 40.51851 | 22.98642 | 25 ft | 28 kts | 104° |
| 2026-05-06 17:10 | 40.51796 | 22.98810 | 25 ft | 8 kts | 163° |
| 2026-05-06 17:11 | 40.51750 | 22.98790 | 25 ft | 8 kts | 204° |
| 2026-05-06 17:11 | 40.51707 | 22.98731 | 28 ft | 10 kts | 237° |
| 2026-05-06 17:11 | 40.51683 | 22.98637 | 25 ft | 13 kts | 281° |
| 2026-05-06 17:11 | 40.51692 | 22.98590 | 27 ft | 0 kts | 284° |
| 2026-05-06 17:15 | 40.51693 | 22.98589 | 27 ft | 1 kts | 284° |
| 2026-05-06 17:15 | 40.51719 | 22.98452 | 25 ft | 45 kts | 283° |
| 2026-05-06 17:16 | 40.51848 | 22.97768 | 28 ft | 106 kts | 283° |
| 2026-05-06 17:16 | 40.52060 | 22.96627 | 26 ft | 153 kts | 285° |
| 2026-05-06 17:16 | 40.52344 | 22.95146 | 282 ft | 170 kts | 284° |
| 2026-05-06 17:16 | 40.52652 | 22.93650 | 901 ft | 171 kts | 287° |
| 2026-05-06 17:17 | 40.52997 | 22.92142 | 1514 ft | 173 kts | 287° |
| 2026-05-06 17:17 | 40.53357 | 22.90582 | 1890 ft | 188 kts | 287° |
| 2026-05-06 17:17 | 40.53758 | 22.88860 | 2215 ft | 205 kts | 287° |
| 2026-05-06 17:17 | 40.54201 | 22.87005 | 2548 ft | 222 kts | 289° |
| 2026-05-06 17:18 | 40.54684 | 22.84957 | 2788 ft | 247 kts | 289° |
| 2026-05-06 17:18 | 40.55202 | 22.82703 | 3184 ft | 266 kts | 289° |
| 2026-05-06 17:18 | 40.55722 | 22.80389 | 4072 ft | 263 kts | 290° |
| 2026-05-06 17:18 | 40.56629 | 22.78355 | 4994 ft | 261 kts | 322° |
| 2026-05-06 17:19 | 40.58250 | 22.77366 | 5808 ft | 263 kts | 357° |
| 2026-05-06 17:19 | 40.60048 | 22.77795 | 6527 ft | 270 kts | 30° |
| 2026-05-06 17:19 | 40.61610 | 22.79211 | 7139 ft | 278 kts | 39° |
| 2026-05-06 17:19 | 40.63292 | 22.80503 | 7704 ft | 284 kts | 19° |
| 2026-05-06 17:20 | 40.65249 | 22.80779 | 8354 ft | 285 kts | 359° |
| 2026-05-06 17:20 | 40.67192 | 22.80646 | 9312 ft | 278 kts | 1° |
| 2026-05-06 17:20 | 40.69137 | 22.80619 | 10015 ft | 282 kts | 3° |
| 2026-05-06 17:20 | 40.71129 | 22.80619 | 10402 ft | 296 kts | 359° |
| 2026-05-06 17:21 | 40.73270 | 22.80575 | 10530 ft | 318 kts | 358° |
| 2026-05-06 17:21 | 40.75549 | 22.80510 | 10730 ft | 336 kts | 358° |
| 2026-05-06 17:21 | 40.77916 | 22.80438 | 11241 ft | 342 kts | 358° |
| 2026-05-06 17:21 | 40.80310 | 22.80368 | 11854 ft | 346 kts | 358° |
| 2026-05-06 17:22 | 40.82724 | 22.80301 | 12474 ft | 349 kts | 358° |
| 2026-05-06 17:22 | 40.85160 | 22.80240 | 13097 ft | 352 kts | 358° |
| 2026-05-06 17:22 | 40.87616 | 22.80181 | 13727 ft | 354 kts | 358° |
| 2026-05-06 17:22 | 40.90087 | 22.80036 | 14285 ft | 356 kts | 351° |
| 2026-05-06 17:23 | 40.92444 | 22.79059 | 14824 ft | 358 kts | 333° |
| 2026-05-06 17:23 | 40.94613 | 22.77408 | 15379 ft | 360 kts | 329° |
| 2026-05-06 17:23 | 40.96740 | 22.75727 | 15916 ft | 362 kts | 329° |
| 2026-05-06 17:23 | 40.98899 | 22.73999 | 16461 ft | 364 kts | 329° |
| 2026-05-06 17:24 | 41.01066 | 22.72257 | 17014 ft | 366 kts | 329° |
| 2026-05-06 17:24 | 41.03249 | 22.70503 | 17584 ft | 369 kts | 329° |
| 2026-05-06 17:24 | 41.05485 | 22.68710 | 18166 ft | 371 kts | 329° |
| 2026-05-06 17:24 | 41.07706 | 22.66933 | 18678 ft | 373 kts | 329° |
| 2026-05-06 17:25 | 41.09906 | 22.65174 | 19190 ft | 376 kts | 329° |
| 2026-05-06 17:25 | 41.12148 | 22.63378 | 19723 ft | 378 kts | 329° |
| 2026-05-06 17:25 | 41.14399 | 22.61575 | 20255 ft | 379 kts | 328° |
| 2026-05-06 17:25 | 41.16671 | 22.59756 | 20768 ft | 381 kts | 328° |
| 2026-05-06 17:26 | 41.18941 | 22.57937 | 21266 ft | 383 kts | 328° |
| 2026-05-06 17:26 | 41.21230 | 22.56101 | 21732 ft | 385 kts | 328° |
| 2026-05-06 17:26 | 41.23526 | 22.54256 | 22185 ft | 387 kts | 328° |
| 2026-05-06 17:26 | 41.25833 | 22.52399 | 22646 ft | 388 kts | 328° |
| 2026-05-06 17:27 | 41.28152 | 22.50529 | 23083 ft | 390 kts | 328° |
| 2026-05-06 17:27 | 41.30476 | 22.48653 | 23517 ft | 392 kts | 328° |
| 2026-05-06 17:27 | 41.32821 | 22.46762 | 23880 ft | 394 kts | 328° |
| 2026-05-06 17:27 | 41.35169 | 22.44870 | 24235 ft | 396 kts | 328° |
| 2026-05-06 17:28 | 41.37523 | 22.42970 | 24580 ft | 397 kts | 328° |
| 2026-05-06 17:28 | 41.39886 | 22.41058 | 24916 ft | 399 kts | 328° |
| 2026-05-06 17:28 | 41.42264 | 22.39132 | 25226 ft | 400 kts | 327° |
| 2026-05-06 17:28 | 41.44643 | 22.37204 | 25573 ft | 401 kts | 327° |
| 2026-05-06 17:29 | 41.46225 | 22.35923 | 25772 ft | 402 kts | 327° |
| 2026-05-06 17:29 | 41.48615 | 22.33987 | 26114 ft | 403 kts | 327° |
| 2026-05-06 17:29 | 41.51010 | 22.32045 | 26447 ft | 404 kts | 327° |
| 2026-05-06 17:29 | 41.53421 | 22.30085 | 26774 ft | 405 kts | 327° |
| 2026-05-06 17:30 | 41.55836 | 22.28120 | 27090 ft | 407 kts | 327° |
| 2026-05-06 17:30 | 41.58256 | 22.26150 | 27395 ft | 409 kts | 327° |
| 2026-05-06 17:30 | 41.60716 | 22.24146 | 27800 ft | 408 kts | 327° |
| 2026-05-06 17:30 | 41.63101 | 22.22202 | 28263 ft | 406 kts | 327° |
| 2026-05-06 17:31 | 41.65507 | 22.20243 | 28731 ft | 404 kts | 327° |
| 2026-05-06 17:31 | 41.67904 | 22.18288 | 29199 ft | 403 kts | 327° |
| 2026-05-06 17:31 | 41.70321 | 22.16311 | 29683 ft | 401 kts | 327° |
| 2026-05-06 17:31 | 41.72665 | 22.14391 | 30134 ft | 399 kts | 326° |
| 2026-05-06 17:32 | 41.75025 | 22.12455 | 30515 ft | 398 kts | 326° |
| 2026-05-06 17:32 | 41.77387 | 22.10517 | 30862 ft | 398 kts | 326° |
| 2026-05-06 17:32 | 41.79731 | 22.08591 | 31215 ft | 397 kts | 326° |
| 2026-05-06 17:32 | 41.82102 | 22.06642 | 31573 ft | 397 kts | 326° |
| 2026-05-06 17:33 | 41.84452 | 22.04710 | 31931 ft | 397 kts | 326° |
| 2026-05-06 17:33 | 41.86807 | 22.02776 | 32282 ft | 396 kts | 326° |
| 2026-05-06 17:33 | 41.89152 | 22.00849 | 32636 ft | 396 kts | 326° |
| 2026-05-06 17:33 | 41.91498 | 21.98915 | 32992 ft | 395 kts | 326° |
| 2026-05-06 17:34 | 41.93842 | 21.96981 | 33361 ft | 394 kts | 326° |
| 2026-05-06 17:34 | 41.96175 | 21.95053 | 33718 ft | 394 kts | 326° |
| 2026-05-06 17:34 | 41.98508 | 21.93124 | 33942 ft | 394 kts | 326° |
| 2026-05-06 17:35 | 42.03260 | 21.89193 | 33980 ft | 407 kts | 326° |
| 2026-05-06 17:35 | 42.08127 | 21.85163 | 33978 ft | 413 kts | 326° |
| 2026-05-06 17:36 | 42.15474 | 21.79067 | 33978 ft | 414 kts | 326° |
| 2026-05-06 17:36 | 42.20351 | 21.75010 | 33977 ft | 414 kts | 326° |
| 2026-05-06 17:37 | 42.25251 | 21.70921 | 33978 ft | 415 kts | 326° |
| 2026-05-06 17:37 | 42.30164 | 21.66814 | 33982 ft | 415 kts | 326° |
| 2026-05-06 17:38 | 42.35073 | 21.62700 | 33986 ft | 415 kts | 326° |
| 2026-05-06 17:38 | 42.39984 | 21.58577 | 33993 ft | 416 kts | 326° |
| 2026-05-06 17:39 | 42.44902 | 21.54444 | 33993 ft | 416 kts | 326° |
| 2026-05-06 17:39 | 42.49829 | 21.50303 | 34004 ft | 417 kts | 326° |
| 2026-05-06 17:40 | 42.54750 | 21.46150 | 34012 ft | 417 kts | 326° |
| 2026-05-06 17:40 | 42.59672 | 21.41983 | 34019 ft | 417 kts | 326° |
| 2026-05-06 17:41 | 42.64599 | 21.37811 | 34020 ft | 418 kts | 326° |
| 2026-05-06 17:41 | 42.69518 | 21.33651 | 34009 ft | 415 kts | 325° |
| 2026-05-06 17:42 | 42.74389 | 21.29516 | 34004 ft | 416 kts | 325° |
| 2026-05-06 17:42 | 42.79302 | 21.25326 | 34009 ft | 417 kts | 325° |
| 2026-05-06 17:43 | 42.84231 | 21.21111 | 34005 ft | 418 kts | 325° |
| 2026-05-06 17:43 | 42.89162 | 21.16901 | 34008 ft | 419 kts | 325° |
| 2026-05-06 17:44 | 42.94105 | 21.12678 | 34008 ft | 419 kts | 325° |
| 2026-05-06 17:44 | 42.99046 | 21.08435 | 34010 ft | 420 kts | 325° |
| 2026-05-06 17:45 | 43.03991 | 21.04187 | 34008 ft | 420 kts | 325° |
| 2026-05-06 17:45 | 43.08937 | 20.99923 | 34003 ft | 420 kts | 325° |
| 2026-05-06 17:46 | 43.13879 | 20.95657 | 33998 ft | 420 kts | 325° |
| 2026-05-06 17:46 | 43.18829 | 20.91378 | 33997 ft | 421 kts | 325° |
| 2026-05-06 17:47 | 43.23782 | 20.87089 | 33988 ft | 421 kts | 325° |
| 2026-05-06 17:47 | 43.28727 | 20.82785 | 33987 ft | 421 kts | 325° |
| 2026-05-06 17:48 | 43.33675 | 20.78484 | 33979 ft | 422 kts | 325° |
| 2026-05-06 17:48 | 43.38643 | 20.74166 | 33976 ft | 422 kts | 325° |
| 2026-05-06 17:49 | 43.43596 | 20.69844 | 33976 ft | 422 kts | 324° |
| 2026-05-06 17:49 | 43.48558 | 20.65497 | 33958 ft | 422 kts | 324° |
| 2026-05-06 17:50 | 43.53522 | 20.61153 | 33948 ft | 423 kts | 324° |
| 2026-05-06 17:50 | 43.58491 | 20.56796 | 33936 ft | 423 kts | 324° |
| 2026-05-06 17:51 | 43.63452 | 20.52429 | 33923 ft | 424 kts | 324° |
| 2026-05-06 17:51 | 43.68395 | 20.48054 | 33919 ft | 425 kts | 324° |
| 2026-05-06 17:52 | 43.73412 | 20.43615 | 33918 ft | 426 kts | 324° |
| 2026-05-06 17:52 | 43.78403 | 20.39201 | 33918 ft | 426 kts | 324° |
| 2026-05-06 17:53 | 43.83367 | 20.34798 | 33925 ft | 426 kts | 324° |
| 2026-05-06 17:53 | 43.88363 | 20.30358 | 33925 ft | 427 kts | 323° |
| 2026-05-06 17:54 | 43.93363 | 20.25902 | 33928 ft | 428 kts | 323° |
| 2026-05-06 17:54 | 43.98376 | 20.21428 | 33929 ft | 429 kts | 323° |
| 2026-05-06 17:55 | 44.03408 | 20.16940 | 33925 ft | 430 kts | 323° |
| 2026-05-06 17:55 | 44.08440 | 20.12428 | 33929 ft | 431 kts | 323° |
| 2026-05-06 17:56 | 44.13480 | 20.07902 | 33930 ft | 431 kts | 323° |
| 2026-05-06 17:56 | 44.18519 | 20.03364 | 33938 ft | 431 kts | 323° |
| 2026-05-06 17:57 | 44.23552 | 19.98824 | 33939 ft | 431 kts | 323° |
| 2026-05-06 17:57 | 44.28587 | 19.94274 | 33936 ft | 431 kts | 323° |
| 2026-05-06 17:58 | 44.33635 | 19.89708 | 33928 ft | 432 kts | 322° |
| 2026-05-06 17:58 | 44.38680 | 19.85129 | 33929 ft | 433 kts | 322° |
| 2026-05-06 17:59 | 44.43728 | 19.80535 | 33931 ft | 433 kts | 322° |
| 2026-05-06 17:59 | 44.48782 | 19.75926 | 33930 ft | 433 kts | 322° |
| 2026-05-06 18:00 | 44.53833 | 19.71318 | 33927 ft | 434 kts | 322° |
| 2026-05-06 18:00 | 44.58859 | 19.66729 | 33923 ft | 434 kts | 322° |
| 2026-05-06 18:01 | 44.63926 | 19.62091 | 33922 ft | 435 kts | 322° |
| 2026-05-06 18:01 | 44.68990 | 19.57432 | 33927 ft | 436 kts | 322° |
| 2026-05-06 18:02 | 44.74062 | 19.52756 | 33925 ft | 436 kts | 322° |
| 2026-05-06 18:02 | 44.79139 | 19.48080 | 33930 ft | 436 kts | 322° |
| 2026-05-06 18:03 | 44.84208 | 19.43386 | 33917 ft | 436 kts | 322° |
| 2026-05-06 18:03 | 44.89283 | 19.38677 | 33920 ft | 437 kts | 322° |
| 2026-05-06 18:04 | 44.94360 | 19.33956 | 33926 ft | 437 kts | 322° |
| 2026-05-06 18:04 | 44.99445 | 19.29223 | 33926 ft | 438 kts | 322° |
| 2026-05-06 18:05 | 45.04525 | 19.24487 | 33923 ft | 438 kts | 322° |
| 2026-05-06 18:05 | 45.09612 | 19.19736 | 33906 ft | 438 kts | 322° |
| 2026-05-06 18:06 | 45.14704 | 19.14963 | 33924 ft | 439 kts | 322° |
| 2026-05-06 18:06 | 45.19806 | 19.10168 | 33921 ft | 440 kts | 322° |
| 2026-05-06 18:07 | 45.24049 | 19.06182 | 33924 ft | 440 kts | 322° |
| 2026-05-06 18:07 | 45.30019 | 19.00550 | 33911 ft | 441 kts | 322° |
| 2026-05-06 18:08 | 45.35087 | 18.95763 | 33916 ft | 442 kts | 322° |
| 2026-05-06 18:08 | 45.40218 | 18.90913 | 33903 ft | 442 kts | 322° |
| 2026-05-06 18:09 | 45.45345 | 18.86052 | 33902 ft | 443 kts | 322° |
| 2026-05-06 18:09 | 45.50471 | 18.81182 | 33901 ft | 443 kts | 322° |
| 2026-05-06 18:10 | 45.55599 | 18.76291 | 33902 ft | 444 kts | 322° |
| 2026-05-06 18:10 | 45.60720 | 18.71385 | 33910 ft | 444 kts | 322° |
| 2026-05-06 18:11 | 45.65022 | 18.67264 | 33913 ft | 444 kts | 322° |
| 2026-05-06 18:11 | 45.70778 | 18.61749 | 33919 ft | 445 kts | 322° |
| 2026-05-06 18:12 | 45.75911 | 18.56806 | 33935 ft | 445 kts | 322° |
| 2026-05-06 18:12 | 45.81053 | 18.51839 | 33942 ft | 445 kts | 322° |
| 2026-05-06 18:13 | 45.86191 | 18.46875 | 33949 ft | 446 kts | 322° |
| 2026-05-06 18:13 | 45.91327 | 18.41900 | 33959 ft | 445 kts | 322° |
| 2026-05-06 18:14 | 45.96464 | 18.36918 | 33963 ft | 445 kts | 322° |
| 2026-05-06 18:14 | 46.01592 | 18.31929 | 33959 ft | 445 kts | 321° |
| 2026-05-06 18:15 | 46.06730 | 18.26929 | 33962 ft | 446 kts | 321° |
| 2026-05-06 18:15 | 46.11865 | 18.21914 | 33957 ft | 446 kts | 321° |
| 2026-05-06 18:16 | 46.14439 | 18.19388 | 34130 ft | 447 kts | 321° |
| 2026-05-06 18:16 | 46.17003 | 18.16872 | 34471 ft | 445 kts | 321° |
| 2026-05-06 18:16 | 46.18693 | 18.15216 | 34663 ft | 445 kts | 321° |
| 2026-05-06 18:16 | 46.21256 | 18.12698 | 34945 ft | 444 kts | 321° |
| 2026-05-06 18:17 | 46.23802 | 18.10192 | 35240 ft | 443 kts | 321° |
| 2026-05-06 18:17 | 46.26351 | 18.07682 | 35494 ft | 443 kts | 321° |
| 2026-05-06 18:17 | 46.28901 | 18.05174 | 35742 ft | 443 kts | 321° |
| 2026-05-06 18:17 | 46.31447 | 18.02667 | 35895 ft | 443 kts | 321° |
| 2026-05-06 18:18 | 46.36535 | 17.97637 | 35923 ft | 442 kts | 321° |
| 2026-05-06 18:18 | 46.41607 | 17.92606 | 35922 ft | 442 kts | 321° |
| 2026-05-06 18:19 | 46.46683 | 17.87570 | 35915 ft | 442 kts | 321° |
| 2026-05-06 18:19 | 46.51760 | 17.82521 | 35914 ft | 442 kts | 321° |
| 2026-05-06 18:20 | 46.56831 | 17.77470 | 35919 ft | 442 kts | 321° |
| 2026-05-06 18:20 | 46.61892 | 17.72399 | 35917 ft | 442 kts | 321° |
| 2026-05-06 18:21 | 46.66941 | 17.67331 | 35914 ft | 442 kts | 321° |
| 2026-05-06 18:21 | 46.72011 | 17.62253 | 35915 ft | 442 kts | 321° |
| 2026-05-06 18:22 | 46.77076 | 17.57153 | 35911 ft | 442 kts | 321° |
| 2026-05-06 18:22 | 46.82123 | 17.52050 | 35911 ft | 442 kts | 321° |
| 2026-05-06 18:23 | 46.87188 | 17.46920 | 35911 ft | 443 kts | 321° |
| 2026-05-06 18:23 | 46.92251 | 17.41790 | 35907 ft | 443 kts | 321° |
| 2026-05-06 18:24 | 46.97315 | 17.36635 | 35907 ft | 443 kts | 320° |
| 2026-05-06 18:24 | 47.02379 | 17.31484 | 35900 ft | 443 kts | 320° |
| 2026-05-06 18:25 | 47.07451 | 17.26326 | 35895 ft | 443 kts | 320° |
| 2026-05-06 18:25 | 47.12508 | 17.21158 | 35893 ft | 443 kts | 320° |
| 2026-05-06 18:26 | 47.17530 | 17.15998 | 35882 ft | 443 kts | 320° |
| 2026-05-06 18:26 | 47.22579 | 17.10787 | 35881 ft | 443 kts | 320° |
| 2026-05-06 18:27 | 47.27636 | 17.05579 | 35876 ft | 444 kts | 320° |
| 2026-05-06 18:27 | 47.32692 | 17.00363 | 35872 ft | 444 kts | 319° |
| 2026-05-06 18:28 | 47.37737 | 16.95138 | 35863 ft | 444 kts | 319° |
| 2026-05-06 18:28 | 47.42787 | 16.89898 | 35856 ft | 444 kts | 319° |
| 2026-05-06 18:29 | 47.47836 | 16.84640 | 35854 ft | 444 kts | 319° |
| 2026-05-06 18:29 | 47.52874 | 16.79373 | 35840 ft | 444 kts | 319° |
| 2026-05-06 18:30 | 47.57672 | 16.73730 | 35832 ft | 436 kts | 308° |
| 2026-05-06 18:30 | 47.61680 | 16.67062 | 35823 ft | 434 kts | 306° |
| 2026-05-06 18:31 | 47.65687 | 16.60343 | 35813 ft | 434 kts | 306° |
| 2026-05-06 18:31 | 47.69683 | 16.53617 | 35804 ft | 434 kts | 306° |
| 2026-05-06 18:32 | 47.73669 | 16.46873 | 35801 ft | 434 kts | 306° |
| 2026-05-06 18:32 | 47.77648 | 16.40134 | 35801 ft | 434 kts | 306° |
| 2026-05-06 18:33 | 47.81633 | 16.33380 | 35795 ft | 434 kts | 305° |
| 2026-05-06 18:33 | 47.85602 | 16.26612 | 35791 ft | 434 kts | 305° |
| 2026-05-06 18:34 | 47.89567 | 16.19840 | 35788 ft | 433 kts | 305° |
| 2026-05-06 18:34 | 47.93530 | 16.13071 | 35779 ft | 433 kts | 305° |
| 2026-05-06 18:35 | 47.97487 | 16.06296 | 35774 ft | 433 kts | 305° |
| 2026-05-06 18:35 | 48.01427 | 15.99507 | 35767 ft | 433 kts | 304° |
| 2026-05-06 18:36 | 48.05372 | 15.92699 | 35766 ft | 433 kts | 305° |
| 2026-05-06 18:36 | 48.09308 | 15.85902 | 35760 ft | 433 kts | 304° |
| 2026-05-06 18:37 | 48.13241 | 15.79095 | 35756 ft | 433 kts | 304° |
| 2026-05-06 18:37 | 48.17167 | 15.72264 | 35748 ft | 432 kts | 304° |
| 2026-05-06 18:38 | 48.21088 | 15.65424 | 35742 ft | 432 kts | 304° |
| 2026-05-06 18:38 | 48.25004 | 15.58607 | 35745 ft | 432 kts | 304° |
| 2026-05-06 18:39 | 48.28923 | 15.51761 | 35748 ft | 431 kts | 304° |
| 2026-05-06 18:40 | 48.34766 | 15.41494 | 35749 ft | 431 kts | 304° |
| 2026-05-06 18:40 | 48.38661 | 15.34639 | 35745 ft | 431 kts | 303° |
| 2026-05-06 18:41 | 48.42549 | 15.27769 | 35749 ft | 431 kts | 303° |
| 2026-05-06 18:41 | 48.46431 | 15.20884 | 35746 ft | 431 kts | 303° |
| 2026-05-06 18:42 | 48.50318 | 15.13981 | 35742 ft | 432 kts | 303° |
| 2026-05-06 18:42 | 48.54203 | 15.07073 | 35744 ft | 432 kts | 303° |
| 2026-05-06 18:43 | 48.58062 | 15.00169 | 35740 ft | 433 kts | 303° |
| 2026-05-06 18:43 | 48.61969 | 14.93174 | 35738 ft | 434 kts | 303° |
| 2026-05-06 18:44 | 48.65864 | 14.86194 | 35733 ft | 435 kts | 303° |
| 2026-05-06 18:44 | 48.69739 | 14.79223 | 35733 ft | 436 kts | 303° |
| 2026-05-06 18:45 | 48.73639 | 14.72189 | 35730 ft | 436 kts | 303° |
| 2026-05-06 18:45 | 48.77543 | 14.65130 | 35733 ft | 437 kts | 302° |
| 2026-05-06 18:46 | 48.81445 | 14.58051 | 35726 ft | 438 kts | 302° |
| 2026-05-06 18:46 | 48.85344 | 14.50965 | 35729 ft | 438 kts | 302° |
| 2026-05-06 18:47 | 48.89245 | 14.43861 | 35729 ft | 438 kts | 302° |
| 2026-05-06 18:47 | 48.93146 | 14.36722 | 35729 ft | 438 kts | 302° |
| 2026-05-06 18:48 | 48.97089 | 14.29618 | 35733 ft | 441 kts | 304° |
| 2026-05-06 18:48 | 49.01237 | 14.22722 | 35737 ft | 443 kts | 306° |
| 2026-05-06 18:49 | 49.05449 | 14.15854 | 35739 ft | 443 kts | 306° |
| 2026-05-06 18:49 | 49.09613 | 14.08938 | 35745 ft | 443 kts | 305° |
| 2026-05-06 18:50 | 49.13745 | 14.01955 | 35747 ft | 443 kts | 305° |
| 2026-05-06 18:50 | 49.17865 | 13.94964 | 35752 ft | 443 kts | 305° |
| 2026-05-06 18:51 | 49.22001 | 13.87967 | 35761 ft | 444 kts | 306° |
| 2026-05-06 18:51 | 49.26137 | 13.80954 | 35758 ft | 444 kts | 306° |
| 2026-05-06 18:52 | 49.30267 | 13.73920 | 35764 ft | 444 kts | 306° |
| 2026-05-06 18:52 | 49.34025 | 13.66537 | 35768 ft | 434 kts | 294° |
| 2026-05-06 18:53 | 49.37052 | 13.58521 | 35769 ft | 434 kts | 294° |
| 2026-05-06 18:53 | 49.40062 | 13.50489 | 35769 ft | 434 kts | 294° |
| 2026-05-06 18:54 | 49.43070 | 13.42439 | 35771 ft | 434 kts | 294° |
| 2026-05-06 18:54 | 49.46050 | 13.34424 | 35768 ft | 435 kts | 294° |
| 2026-05-06 18:55 | 49.49056 | 13.26299 | 35773 ft | 435 kts | 294° |
| 2026-05-06 18:55 | 49.52051 | 13.18195 | 35768 ft | 435 kts | 294° |
| 2026-05-06 18:56 | 49.55014 | 13.10164 | 35783 ft | 435 kts | 294° |
| 2026-05-06 18:56 | 49.58004 | 13.02047 | 35777 ft | 435 kts | 293° |
| 2026-05-06 18:57 | 49.60982 | 12.93935 | 35785 ft | 435 kts | 293° |
| 2026-05-06 18:57 | 49.63949 | 12.85788 | 35772 ft | 435 kts | 293° |
| 2026-05-06 18:58 | 49.66916 | 12.77635 | 35779 ft | 436 kts | 293° |
| 2026-05-06 18:58 | 49.69885 | 12.69465 | 35784 ft | 436 kts | 293° |
| 2026-05-06 18:59 | 49.72830 | 12.61297 | 35787 ft | 436 kts | 293° |
| 2026-05-06 18:59 | 49.75755 | 12.53132 | 35789 ft | 437 kts | 293° |
| 2026-05-06 19:00 | 49.78712 | 12.44910 | 35791 ft | 437 kts | 293° |
| 2026-05-06 19:00 | 49.81662 | 12.36674 | 35797 ft | 438 kts | 293° |
| 2026-05-06 19:01 | 49.84615 | 12.28412 | 35799 ft | 439 kts | 293° |
| 2026-05-06 19:01 | 49.87087 | 12.21472 | 35799 ft | 439 kts | 293° |
| 2026-05-06 19:02 | 49.90014 | 12.13235 | 35800 ft | 439 kts | 293° |
| 2026-05-06 19:02 | 49.92976 | 12.04872 | 35807 ft | 440 kts | 293° |
| 2026-05-06 19:03 | 49.95903 | 11.96593 | 35814 ft | 440 kts | 293° |
| 2026-05-06 19:03 | 49.98684 | 11.88687 | 35815 ft | 440 kts | 292° |
| 2026-05-06 19:04 | 50.01626 | 11.80279 | 35828 ft | 440 kts | 292° |
| 2026-05-06 19:04 | 50.04534 | 11.71930 | 35837 ft | 440 kts | 292° |
| 2026-05-06 19:05 | 50.07457 | 11.63544 | 35836 ft | 440 kts | 293° |
| 2026-05-06 19:05 | 50.10365 | 11.55169 | 35832 ft | 440 kts | 292° |
| 2026-05-06 19:06 | 50.13268 | 11.46784 | 35832 ft | 440 kts | 292° |
| 2026-05-06 19:06 | 50.16166 | 11.38384 | 35830 ft | 440 kts | 292° |
| 2026-05-06 19:07 | 50.18308 | 11.29591 | 35822 ft | 433 kts | 283° |
| 2026-05-06 19:07 | 50.20182 | 11.20738 | 35819 ft | 433 kts | 283° |
| 2026-05-06 19:08 | 50.22055 | 11.11792 | 35816 ft | 433 kts | 283° |
| 2026-05-06 19:08 | 50.23922 | 11.02844 | 35812 ft | 434 kts | 283° |
| 2026-05-06 19:09 | 50.25803 | 10.93870 | 35811 ft | 435 kts | 283° |
| 2026-05-06 19:09 | 50.27667 | 10.84885 | 35808 ft | 435 kts | 283° |
| 2026-05-06 19:10 | 50.29517 | 10.75880 | 35811 ft | 435 kts | 283° |
| 2026-05-06 19:10 | 50.31361 | 10.66862 | 35810 ft | 436 kts | 283° |
| 2026-05-06 19:11 | 50.33207 | 10.57827 | 35807 ft | 436 kts | 283° |
| 2026-05-06 19:11 | 50.35045 | 10.48783 | 35807 ft | 436 kts | 283° |
| 2026-05-06 19:12 | 50.36870 | 10.39731 | 35807 ft | 437 kts | 283° |
| 2026-05-06 19:12 | 50.38709 | 10.30581 | 35811 ft | 437 kts | 282° |
| 2026-05-06 19:13 | 50.40517 | 10.21551 | 35809 ft | 438 kts | 283° |
| 2026-05-06 19:13 | 50.42333 | 10.12441 | 35804 ft | 438 kts | 282° |
| 2026-05-06 19:14 | 50.44152 | 10.03264 | 35804 ft | 438 kts | 282° |
| 2026-05-06 19:14 | 50.45949 | 9.94117 | 35817 ft | 439 kts | 282° |
| 2026-05-06 19:15 | 50.47737 | 9.85020 | 35806 ft | 439 kts | 282° |
| 2026-05-06 19:15 | 50.49548 | 9.75783 | 35818 ft | 439 kts | 282° |
| 2026-05-06 19:16 | 50.51318 | 9.66665 | 35822 ft | 440 kts | 282° |
| 2026-05-06 19:16 | 50.53089 | 9.57474 | 35826 ft | 440 kts | 282° |
| 2026-05-06 19:17 | 50.54865 | 9.48261 | 35823 ft | 441 kts | 282° |
| 2026-05-06 19:17 | 50.56639 | 9.39028 | 35826 ft | 441 kts | 282° |
| 2026-05-06 19:18 | 50.58400 | 9.29800 | 35837 ft | 441 kts | 282° |
| 2026-05-06 19:18 | 50.60153 | 9.20549 | 35837 ft | 441 kts | 283° |
| 2026-05-06 19:19 | 50.61901 | 9.11300 | 35849 ft | 441 kts | 283° |
| 2026-05-06 19:19 | 50.63637 | 9.02047 | 35849 ft | 441 kts | 283° |
| 2026-05-06 19:20 | 50.65366 | 8.92797 | 35852 ft | 440 kts | 283° |
| 2026-05-06 19:20 | 50.67087 | 8.83547 | 35850 ft | 439 kts | 283° |
| 2026-05-06 19:21 | 50.68802 | 8.74296 | 35851 ft | 439 kts | 283° |
| 2026-05-06 19:21 | 50.70511 | 8.65047 | 35854 ft | 439 kts | 283° |
| 2026-05-06 19:22 | 50.72205 | 8.55784 | 35855 ft | 439 kts | 283° |
| 2026-05-06 19:22 | 50.73889 | 8.46519 | 35855 ft | 439 kts | 283° |
| 2026-05-06 19:23 | 50.75565 | 8.37251 | 35855 ft | 439 kts | 283° |
| 2026-05-06 19:23 | 50.77243 | 8.27972 | 35855 ft | 439 kts | 283° |
| 2026-05-06 19:24 | 50.78916 | 8.18682 | 35851 ft | 440 kts | 283° |
| 2026-05-06 19:24 | 50.80579 | 8.09375 | 35851 ft | 440 kts | 283° |
| 2026-05-06 19:25 | 50.82232 | 8.00068 | 35855 ft | 440 kts | 283° |
| 2026-05-06 19:25 | 50.83881 | 7.90747 | 35862 ft | 441 kts | 283° |
| 2026-05-06 19:26 | 50.85521 | 7.81394 | 35869 ft | 441 kts | 283° |
| 2026-05-06 19:26 | 50.87160 | 7.72023 | 35882 ft | 441 kts | 283° |
| 2026-05-06 19:27 | 50.88789 | 7.62666 | 35898 ft | 441 kts | 283° |
| 2026-05-06 19:27 | 50.90416 | 7.53285 | 35898 ft | 441 kts | 283° |
| 2026-05-06 19:28 | 50.92029 | 7.43930 | 35905 ft | 441 kts | 283° |
| 2026-05-06 19:28 | 50.93637 | 7.34533 | 35914 ft | 442 kts | 283° |
| 2026-05-06 19:29 | 50.95237 | 7.25120 | 35914 ft | 442 kts | 283° |
| 2026-05-06 19:29 | 50.96829 | 7.15736 | 35914 ft | 441 kts | 283° |
| 2026-05-06 19:30 | 50.98411 | 7.06369 | 35914 ft | 442 kts | 283° |
| 2026-05-06 19:30 | 50.99989 | 6.96953 | 35917 ft | 442 kts | 283° |
| 2026-05-06 19:31 | 51.01703 | 6.87579 | 35923 ft | 443 kts | 286° |
| 2026-05-06 19:31 | 51.04751 | 6.73712 | 35936 ft | 443 kts | 288° |
| 2026-05-06 19:32 | 51.06760 | 6.64452 | 35935 ft | 443 kts | 287° |
| 2026-05-06 19:32 | 51.08699 | 6.55150 | 35937 ft | 442 kts | 286° |
| 2026-05-06 19:33 | 51.10613 | 6.45849 | 35938 ft | 442 kts | 286° |
| 2026-05-06 19:33 | 51.12532 | 6.36554 | 35932 ft | 442 kts | 287° |
| 2026-05-06 19:34 | 51.14452 | 6.27260 | 35946 ft | 442 kts | 287° |
| 2026-05-06 19:34 | 51.16365 | 6.17955 | 35937 ft | 442 kts | 286° |
| 2026-05-06 19:35 | 51.18262 | 6.08647 | 35937 ft | 441 kts | 286° |
| 2026-05-06 19:35 | 51.20151 | 5.99351 | 35937 ft | 441 kts | 286° |
| 2026-05-06 19:36 | 51.22031 | 5.90048 | 35935 ft | 440 kts | 286° |
| 2026-05-06 19:36 | 51.23898 | 5.80754 | 35940 ft | 440 kts | 286° |
| 2026-05-06 19:37 | 51.25760 | 5.71436 | 35948 ft | 440 kts | 286° |
| 2026-05-06 19:37 | 51.27306 | 5.63686 | 35954 ft | 440 kts | 286° |
| 2026-05-06 19:38 | 51.29460 | 5.52852 | 35958 ft | 440 kts | 286° |
| 2026-05-06 19:38 | 51.31301 | 5.43521 | 35962 ft | 440 kts | 286° |
| 2026-05-06 19:39 | 51.33138 | 5.34189 | 35964 ft | 440 kts | 286° |
| 2026-05-06 19:39 | 51.34962 | 5.24856 | 35965 ft | 440 kts | 286° |
| 2026-05-06 19:40 | 51.36784 | 5.15512 | 35963 ft | 440 kts | 286° |
| 2026-05-06 19:40 | 51.38592 | 5.06162 | 35963 ft | 440 kts | 286° |
| 2026-05-06 19:41 | 51.40393 | 4.96802 | 35965 ft | 439 kts | 286° |
| 2026-05-06 19:41 | 51.42189 | 4.87441 | 35967 ft | 439 kts | 286° |
| 2026-05-06 19:42 | 51.43971 | 4.78093 | 35965 ft | 439 kts | 286° |
| 2026-05-06 19:42 | 51.45748 | 4.68713 | 35967 ft | 439 kts | 286° |
| 2026-05-06 19:43 | 51.47518 | 4.59350 | 35966 ft | 439 kts | 286° |
| 2026-05-06 19:43 | 51.48987 | 4.51563 | 35967 ft | 439 kts | 286° |
| 2026-05-06 19:44 | 51.51037 | 4.40612 | 35968 ft | 438 kts | 285° |
| 2026-05-06 19:44 | 51.52487 | 4.32821 | 35965 ft | 438 kts | 285° |
| 2026-05-06 19:45 | 51.54228 | 4.23426 | 35964 ft | 438 kts | 285° |
| 2026-05-06 19:45 | 51.55957 | 4.14041 | 35966 ft | 438 kts | 285° |
| 2026-05-06 19:46 | 51.57677 | 4.04658 | 35971 ft | 438 kts | 285° |
| 2026-05-06 19:46 | 51.59393 | 3.95267 | 35970 ft | 438 kts | 285° |
| 2026-05-06 19:47 | 51.61101 | 3.85869 | 35979 ft | 437 kts | 285° |
| 2026-05-06 19:47 | 51.62796 | 3.76486 | 35976 ft | 437 kts | 285° |
| 2026-05-06 19:48 | 51.64479 | 3.67101 | 35981 ft | 436 kts | 285° |
| 2026-05-06 19:48 | 51.66147 | 3.57732 | 35982 ft | 435 kts | 285° |
| 2026-05-06 19:49 | 51.67817 | 3.48375 | 35984 ft | 434 kts | 285° |
| 2026-05-06 19:49 | 51.69478 | 3.39023 | 35986 ft | 433 kts | 285° |
| 2026-05-06 19:50 | 51.71118 | 3.29680 | 35992 ft | 433 kts | 285° |
| 2026-05-06 19:50 | 51.72662 | 3.20323 | 35994 ft | 431 kts | 279° |
| 2026-05-06 19:51 | 51.72748 | 3.10708 | 35990 ft | 429 kts | 262° |
| 2026-05-06 19:51 | 51.71904 | 3.01186 | 35753 ft | 430 kts | 262° |
| 2026-05-06 19:52 | 51.71486 | 2.96363 | 34694 ft | 439 kts | 262° |
| 2026-05-06 19:52 | 51.71065 | 2.91460 | 33690 ft | 445 kts | 262° |
| 2026-05-06 19:52 | 51.70635 | 2.86500 | 32736 ft | 445 kts | 262° |
| 2026-05-06 19:52 | 51.70203 | 2.81575 | 31876 ft | 444 kts | 262° |
| 2026-05-06 19:53 | 51.69769 | 2.76674 | 31349 ft | 438 kts | 262° |
| 2026-05-06 19:53 | 51.69341 | 2.71853 | 30808 ft | 432 kts | 262° |
| 2026-05-06 19:53 | 51.68917 | 2.67076 | 30268 ft | 428 kts | 262° |
| 2026-05-06 19:53 | 51.68495 | 2.62367 | 29648 ft | 424 kts | 262° |
| 2026-05-06 19:54 | 51.68072 | 2.57684 | 29104 ft | 418 kts | 262° |
| 2026-05-06 19:54 | 51.67660 | 2.53137 | 28566 ft | 413 kts | 262° |
| 2026-05-06 19:54 | 51.67247 | 2.48585 | 28030 ft | 408 kts | 262° |
| 2026-05-06 19:54 | 51.66832 | 2.44031 | 27494 ft | 404 kts | 262° |
| 2026-05-06 19:55 | 51.66429 | 2.39638 | 26978 ft | 400 kts | 262° |
| 2026-05-06 19:55 | 51.66018 | 2.35173 | 26452 ft | 396 kts | 262° |
| 2026-05-06 19:55 | 51.65622 | 2.30860 | 25943 ft | 393 kts | 262° |
| 2026-05-06 19:55 | 51.65222 | 2.26529 | 25449 ft | 390 kts | 261° |
| 2026-05-06 19:56 | 51.64821 | 2.22225 | 24962 ft | 388 kts | 261° |
| 2026-05-06 19:56 | 51.64418 | 2.17946 | 24489 ft | 386 kts | 261° |
| 2026-05-06 19:56 | 51.64015 | 2.13688 | 24019 ft | 384 kts | 261° |
| 2026-05-06 19:56 | 51.63615 | 2.09444 | 23561 ft | 382 kts | 261° |
| 2026-05-06 19:57 | 51.63224 | 2.05233 | 23069 ft | 379 kts | 262° |
| 2026-05-06 19:57 | 51.62839 | 2.01053 | 22633 ft | 376 kts | 262° |
| 2026-05-06 19:57 | 51.62455 | 1.96893 | 22193 ft | 373 kts | 262° |
| 2026-05-06 19:57 | 51.62073 | 1.92785 | 21738 ft | 370 kts | 262° |
| 2026-05-06 19:58 | 51.61680 | 1.88704 | 21285 ft | 368 kts | 259° |
| 2026-05-06 19:58 | 51.60954 | 1.84779 | 20824 ft | 365 kts | 248° |
| 2026-05-06 19:58 | 51.59769 | 1.81180 | 20340 ft | 364 kts | 237° |
| 2026-05-06 19:58 | 51.58186 | 1.78003 | 19860 ft | 363 kts | 230° |
| 2026-05-06 19:59 | 51.56513 | 1.74978 | 19379 ft | 362 kts | 230° |
| 2026-05-06 19:59 | 51.54845 | 1.71964 | 18912 ft | 360 kts | 230° |
| 2026-05-06 19:59 | 51.53190 | 1.68973 | 18424 ft | 358 kts | 230° |
| 2026-05-06 19:59 | 51.51537 | 1.65982 | 17898 ft | 356 kts | 230° |
| 2026-05-06 20:00 | 51.49925 | 1.62992 | 17406 ft | 352 kts | 234° |
| 2026-05-06 20:00 | 51.48636 | 1.59695 | 16927 ft | 347 kts | 245° |
| 2026-05-06 20:00 | 51.47736 | 1.56126 | 16460 ft | 344 kts | 251° |
| 2026-05-06 20:00 | 51.46919 | 1.52540 | 15979 ft | 341 kts | 251° |
| 2026-05-06 20:01 | 51.46106 | 1.48986 | 15511 ft | 339 kts | 251° |
| 2026-05-06 20:01 | 51.45292 | 1.45447 | 15048 ft | 337 kts | 251° |
| 2026-05-06 20:01 | 51.44476 | 1.41928 | 14581 ft | 336 kts | 249° |
| 2026-05-06 20:01 | 51.43389 | 1.38626 | 14117 ft | 336 kts | 237° |
| 2026-05-06 20:02 | 51.41901 | 1.35829 | 13824 ft | 333 kts | 224° |
| 2026-05-06 20:02 | 51.40043 | 1.33460 | 13675 ft | 339 kts | 218° |
| 2026-05-06 20:02 | 51.38168 | 1.31241 | 13486 ft | 340 kts | 218° |
| 2026-05-06 20:02 | 51.36249 | 1.28965 | 13306 ft | 339 kts | 218° |
| 2026-05-06 20:03 | 51.34375 | 1.26747 | 13121 ft | 338 kts | 218° |
| 2026-05-06 20:03 | 51.32486 | 1.24513 | 12939 ft | 338 kts | 218° |
| 2026-05-06 20:03 | 51.30599 | 1.22283 | 12754 ft | 337 kts | 218° |
| 2026-05-06 20:03 | 51.28720 | 1.20065 | 12575 ft | 336 kts | 218° |
| 2026-05-06 20:04 | 51.26839 | 1.17847 | 12395 ft | 335 kts | 218° |
| 2026-05-06 20:04 | 51.24959 | 1.15634 | 12210 ft | 334 kts | 218° |
| 2026-05-06 20:04 | 51.23092 | 1.13443 | 12026 ft | 334 kts | 218° |
| 2026-05-06 20:04 | 51.21228 | 1.11259 | 11862 ft | 333 kts | 218° |
| 2026-05-06 20:05 | 51.19361 | 1.09071 | 11670 ft | 332 kts | 218° |
| 2026-05-06 20:05 | 51.17502 | 1.06892 | 11502 ft | 331 kts | 218° |
| 2026-05-06 20:05 | 51.15648 | 1.04719 | 11325 ft | 331 kts | 218° |
| 2026-05-06 20:05 | 51.13793 | 1.02549 | 11149 ft | 330 kts | 217° |
| 2026-05-06 20:06 | 51.11941 | 1.00389 | 10973 ft | 329 kts | 217° |
| 2026-05-06 20:06 | 51.10103 | 0.98245 | 10801 ft | 328 kts | 218° |
| 2026-05-06 20:06 | 51.08260 | 0.96096 | 10613 ft | 327 kts | 217° |
| 2026-05-06 20:06 | 51.06521 | 0.93805 | 10453 ft | 320 kts | 227° |
| 2026-05-06 20:07 | 51.05189 | 0.91082 | 10321 ft | 306 kts | 240° |
| 2026-05-06 20:07 | 51.04245 | 0.88132 | 10194 ft | 295 kts | 246° |
| 2026-05-06 20:07 | 51.03381 | 0.85215 | 9999 ft | 288 kts | 246° |
| 2026-05-06 20:07 | 51.02527 | 0.82353 | 9915 ft | 286 kts | 246° |
| 2026-05-06 20:08 | 51.01675 | 0.79511 | 9767 ft | 285 kts | 246° |
| 2026-05-06 20:08 | 51.00822 | 0.76665 | 9604 ft | 285 kts | 246° |
| 2026-05-06 20:08 | 50.99972 | 0.73828 | 9451 ft | 284 kts | 245° |
| 2026-05-06 20:08 | 50.99123 | 0.71002 | 9297 ft | 284 kts | 246° |
| 2026-05-06 20:09 | 50.98275 | 0.68182 | 9129 ft | 283 kts | 245° |
| 2026-05-06 20:09 | 50.97429 | 0.65371 | 8990 ft | 282 kts | 246° |
| 2026-05-06 20:09 | 50.96586 | 0.62567 | 8834 ft | 281 kts | 245° |
| 2026-05-06 20:09 | 50.95742 | 0.59768 | 8687 ft | 281 kts | 245° |
| 2026-05-06 20:10 | 50.94897 | 0.56976 | 8533 ft | 280 kts | 245° |
| 2026-05-06 20:10 | 50.94054 | 0.54194 | 8354 ft | 279 kts | 245° |
| 2026-05-06 20:10 | 50.93215 | 0.51421 | 8203 ft | 279 kts | 245° |
| 2026-05-06 20:10 | 50.92379 | 0.48654 | 8064 ft | 278 kts | 246° |
| 2026-05-06 20:11 | 50.91774 | 0.45764 | 7980 ft | 276 kts | 261° |
| 2026-05-06 20:11 | 50.91672 | 0.42742 | 7996 ft | 275 kts | 275° |
| 2026-05-06 20:11 | 50.91868 | 0.40432 | 7992 ft | 266 kts | 281° |
| 2026-05-06 20:11 | 50.92186 | 0.37608 | 7998 ft | 251 kts | 281° |
| 2026-05-06 20:12 | 50.92500 | 0.34944 | 7987 ft | 243 kts | 281° |
| 2026-05-06 20:12 | 50.92813 | 0.32309 | 7994 ft | 243 kts | 281° |
| 2026-05-06 20:12 | 50.93124 | 0.29692 | 7995 ft | 242 kts | 281° |
| 2026-05-06 20:12 | 50.93438 | 0.27065 | 7993 ft | 242 kts | 281° |
| 2026-05-06 20:13 | 50.93729 | 0.24625 | 7999 ft | 242 kts | 281° |
| 2026-05-06 20:13 | 50.94042 | 0.21996 | 7999 ft | 242 kts | 281° |
| 2026-05-06 20:13 | 50.94354 | 0.19382 | 8002 ft | 242 kts | 281° |
| 2026-05-06 20:13 | 50.94666 | 0.16764 | 7997 ft | 242 kts | 281° |
| 2026-05-06 20:14 | 50.94979 | 0.14141 | 7998 ft | 242 kts | 281° |
| 2026-05-06 20:14 | 50.95293 | 0.11516 | 8013 ft | 242 kts | 281° |
| 2026-05-06 20:14 | 50.95607 | 0.08901 | 8010 ft | 242 kts | 281° |
| 2026-05-06 20:14 | 50.95919 | 0.06290 | 8021 ft | 242 kts | 281° |
| 2026-05-06 20:15 | 50.96231 | 0.03667 | 8012 ft | 241 kts | 281° |
| 2026-05-06 20:15 | 50.96542 | 0.01054 | 8006 ft | 241 kts | 281° |
| 2026-05-06 20:15 | 50.96846 | -0.01515 | 7734 ft | 239 kts | 281° |
| 2026-05-06 20:15 | 50.97154 | -0.04105 | 7440 ft | 238 kts | 281° |
| 2026-05-06 20:16 | 50.97461 | -0.06682 | 7149 ft | 237 kts | 281° |
| 2026-05-06 20:16 | 50.97768 | -0.09253 | 6846 ft | 237 kts | 281° |
| 2026-05-06 20:16 | 50.98074 | -0.11810 | 6554 ft | 236 kts | 281° |
| 2026-05-06 20:16 | 50.98379 | -0.14360 | 6255 ft | 235 kts | 281° |
| 2026-05-06 20:17 | 50.98682 | -0.16898 | 5945 ft | 233 kts | 281° |
| 2026-05-06 20:17 | 50.98979 | -0.19413 | 5668 ft | 232 kts | 281° |
| 2026-05-06 20:17 | 50.99274 | -0.21929 | 5377 ft | 231 kts | 281° |
| 2026-05-06 20:17 | 50.99564 | -0.24427 | 5075 ft | 230 kts | 281° |
| 2026-05-06 20:18 | 50.99853 | -0.26921 | 4785 ft | 229 kts | 281° |
| 2026-05-06 20:18 | 51.00136 | -0.29409 | 4467 ft | 228 kts | 281° |
| 2026-05-06 20:18 | 51.00415 | -0.31892 | 4141 ft | 228 kts | 281° |
| 2026-05-06 20:18 | 51.00921 | -0.34197 | 3915 ft | 224 kts | 306° |
| 2026-05-06 20:19 | 51.01861 | -0.35962 | 3587 ft | 224 kts | 315° |
| 2026-05-06 20:19 | 51.02934 | -0.37701 | 3426 ft | 216 kts | 316° |
| 2026-05-06 20:19 | 51.03971 | -0.39356 | 3294 ft | 207 kts | 316° |
| 2026-05-06 20:19 | 51.04969 | -0.40951 | 3162 ft | 199 kts | 316° |
| 2026-05-06 20:20 | 51.05915 | -0.42472 | 3060 ft | 189 kts | 316° |
| 2026-05-06 20:20 | 51.06822 | -0.43938 | 3016 ft | 183 kts | 316° |
| 2026-05-06 20:20 | 51.07724 | -0.45384 | 3005 ft | 183 kts | 320° |
| 2026-05-06 20:20 | 51.08843 | -0.46239 | 3004 ft | 180 kts | 353° |
| 2026-05-06 20:21 | 51.10073 | -0.46013 | 3000 ft | 180 kts | 23° |
| 2026-05-06 20:21 | 51.11047 | -0.44791 | 3002 ft | 182 kts | 54° |
| 2026-05-06 20:21 | 51.11498 | -0.42905 | 3000 ft | 186 kts | 75° |
| 2026-05-06 20:21 | 51.11773 | -0.40909 | 2824 ft | 183 kts | 76° |
| 2026-05-06 20:22 | 51.12043 | -0.38957 | 2593 ft | 179 kts | 75° |
| 2026-05-06 20:22 | 51.12314 | -0.37011 | 2347 ft | 175 kts | 75° |
| 2026-05-06 20:22 | 51.12569 | -0.35184 | 2129 ft | 169 kts | 75° |
| 2026-05-06 20:22 | 51.12826 | -0.33340 | 1883 ft | 168 kts | 75° |
| 2026-05-06 20:23 | 51.13075 | -0.31561 | 1665 ft | 166 kts | 75° |
| 2026-05-06 20:23 | 51.13323 | -0.29780 | 1439 ft | 163 kts | 75° |
| 2026-05-06 20:23 | 51.13565 | -0.28034 | 1218 ft | 151 kts | 75° |
| 2026-05-06 20:23 | 51.13781 | -0.26478 | 995 ft | 141 kts | 76° |
| 2026-05-06 20:24 | 51.13993 | -0.24948 | 790 ft | 138 kts | 78° |
| 2026-05-06 20:24 | 51.14200 | -0.23463 | 591 ft | 137 kts | 78° |
| 2026-05-06 20:24 | 51.14404 | -0.22011 | 415 ft | 136 kts | 78° |
| 2026-05-06 20:24 | 51.14610 | -0.20524 | 237 ft | 135 kts | 79° |
| 2026-05-06 20:25 | 51.14789 | -0.19215 | 215 ft | 99 kts | 77° |
| 2026-05-06 20:25 | 51.14906 | -0.18378 | 210 ft | 58 kts | 76° |
| 2026-05-06 20:25 | 51.15000 | -0.17919 | 214 ft | 35 kts | 56° |
| 2026-05-06 20:25 | 51.15096 | -0.17761 | 206 ft | 17 kts | 8° |
| 2026-05-06 20:26 | 51.15166 | -0.17772 | 211 ft | 4 kts | 353° |
| 2026-05-06 20:26 | 51.15169 | -0.17772 | 210 ft | 0 kts | 353° |
| 2026-05-06 20:27 | 51.15177 | -0.17774 | 208 ft | 5 kts | 353° |
| 2026-05-06 20:27 | 51.15228 | -0.17780 | 205 ft | 9 kts | 4° |
| 2026-05-06 20:27 | 51.15268 | -0.17701 | 209 ft | 11 kts | 77° |
| 2026-05-06 20:27 | 51.15286 | -0.17564 | 205 ft | 14 kts | 78° |
| 2026-05-06 20:28 | 51.15296 | -0.17471 | 205 ft | 13 kts | 82° |
| 2026-05-06 20:28 | 51.15365 | -0.17310 | 214 ft | 15 kts | 66° |
| 2026-05-06 20:28 | 51.15409 | -0.17276 | 208 ft | 11 kts | 337° |
| 2026-05-06 20:28 | 51.15491 | -0.17294 | 205 ft | 13 kts | 356° |
| 2026-05-06 20:29 | 51.15582 | -0.17345 | 205 ft | 15 kts | 308° |
| 2026-05-06 20:29 | 51.15639 | -0.17474 | 212 ft | 16 kts | 344° |
| 2026-05-06 20:29 | 51.15769 | -0.17463 | 208 ft | 14 kts | 75° |
| 2026-05-06 20:29 | 51.15783 | -0.17354 | 205 ft | 16 kts | 77° |
| 2026-05-06 20:30 | 51.15809 | -0.17168 | 215 ft | 16 kts | 76° |
| 2026-05-06 20:30 | 51.15944 | -0.16992 | 209 ft | 11 kts | 69° |
| 2026-05-06 20:30 | 51.15915 | -0.16952 | 207 ft | 5 kts | 153° |
| 2026-05-06 20:31 | 51.15920 | -0.16931 | 206 ft | 2 kts | 47° |
| 2026-05-06 20:31 | 51.15935 | -0.16904 | 205 ft | 6 kts | 53° |
| 2026-05-06 20:31 | 51.15933 | -0.16838 | 208 ft | 5 kts | 145° |
| 2026-05-06 20:31 | 51.15913 | -0.16840 | 207 ft | 1 kts | 188° |
| 2026-05-06 20:32 | 51.15907 | -0.16841 | 205 ft | 0 kts | 188° |